Wednesday, December 19, 2018, 12:49 AM EST
Back to Local

KSYR, Syracuse Hancock International Airport

Location: Syracuse, NY, United States Lat: 43.117
Local Time: 12:49 AM EST ( 5:49 GMT) Lon: -76.1
Time Zone: US/Eastern Elev: 410 ft

Show me the last for .
Show Coded

Time T Td Feel RH Dir Speed Gust Alt SLP Vis Weather Sky Remarks
2018-12-18 23:54 24 17 16 74 230° 7 - 30.14 30.15 10 OVC028 24-hr Min Temp (12am): 19.9°F
24-hr Max Temp (12am): 25.0°F
2018-12-18 22:54 24 17 20 74 220° 3 - 30.16 30.17 10 OVC026 None
2018-12-18 21:54 24 17 17 74 220° 6 - 30.18 30.19 10 OVC026 None
2018-12-18 20:54 24 16 18 70 250° 5 - 30.18 30.19 10 OVC026 None
2018-12-18 19:54 24 15 15 68 270° 8 - 30.20 30.21 10 OVC027 None
2018-12-18 19:29 23 16 15 74 260° 7 - 30.20 - 10 OVC027 None
2018-12-18 18:54 23 15 15 71 270° 7 - 30.20 30.21 10 OVC030 6-hr Precip Total (7pm): 0.00"
Snow depth: 1"
6-hr Min Temp (7pm): 21.0°F
6-hr Max Temp (7pm): 23.0°F
2018-12-18 17:54 22 15 13 74 260° 7 - 30.20 30.21 10 OVC030 None
2018-12-18 16:54 22 14 12 71 300° 9 - 30.20 30.21 10 OVC030 1-hr Precip Total: Trace
2018-12-18 15:54 22 13 11 67 290° 10 - 30.20 30.21 9 -SN FEW023 OVC030 1-hr Precip Total: Trace
6-hr Precip Total (4pm): 0.00"
2018-12-18 14:54 21 14 11 73 300° 9 - 30.18 30.19 9 -SN SCT027 BKN035 1-hr Precip Total: Trace
2018-12-18 14:15 22 14 10 71 300° 13 - 30.18 - 9 -SN FEW024 SCT029 OVC034 1-hr Precip Total: Trace
2018-12-18 13:54 21 14 8 73 310° 15 - 30.18 30.19 4 -SN BKN025 OVC033 1-hr Precip Total: Trace
2018-12-18 13:08 21 13 8 70 300° 14 - 30.17 - 9 -SN FEW018 SCT026 BKN035 1-hr Precip Total: Trace
2018-12-18 12:54 21 14 10 73 320° 10 - 30.17 30.18 4 -SN FEW018 BKN026 OVC035 1-hr Precip Total: Trace
6-hr Precip Total (1pm): 0.00"
Snow depth: 1"
6-hr Min Temp (1pm): 19.9°F
6-hr Max Temp (1pm): 21.9°F
2018-12-18 12:30 21 15 11 77 310° 9 - 30.17 - 3 -SN FEW018 BKN026 OVC035 1-hr Precip Total: Trace
2018-12-18 12:04 21 15 9 77 340° 12 - 30.17 - 1 -SN FEW018 BKN028 OVC036 1-hr Precip Total: Trace
2018-12-18 11:54 21 15 9 77 340° 13 - 30.18 30.18 2 -SN FEW019 BKN030 OVC038 Variable visibility
1-hr Precip Total: Trace
2018-12-18 11:26 21 15 11 77 330° 9 - 30.18 - 5 -SN BKN028 OVC036 1-hr Precip Total: Trace
2018-12-18 11:05 21 15 10 77 320° 10 - 30.19 - 2 -SN FEW020 BKN028 OVC038 Variable visibility
1-hr Precip Total: Trace
2018-12-18 10:54 21 14 13 73 350° 6 - 30.18 30.19 5 -SN FEW023 BKN030 OVC038 1-hr Precip Total: Trace
2018-12-18 10:44 21 15 11 77 350° 8 - 30.18 - 4 -SN SCT027 BKN034 OVC042 1-hr Precip Total: Trace
2018-12-18 10:35 20 14 11 77 360° 7 - 30.19 - 3 -SN BKN025 BKN030 OVC038 1-hr Precip Total: Trace
2018-12-18 09:54 20 14 12 77 360° 6 - 30.19 30.20 2 -SN BKN022 OVC030 1-hr Precip Total: Trace
6-hr Precip Total (10am): 0.00"
2018-12-18 08:54 20 15 9 81 350° 10 - 30.18 30.18 4 -SN BKN030 OVC035 1-hr Precip Total: Trace
2018-12-18 08:32 20 16 10 84 340° 8 - 30.17 - 2 -SN BR FEW020 BKN027 OVC032 Variable visibility
1-hr Precip Total: Trace
2018-12-18 08:19 20 16 9 84 360° 10 - 30.17 - 3 -SN BR FEW020 BKN026 OVC032 1-hr Precip Total: Trace
2018-12-18 08:09 21 16 10 80 360° 10 - 30.16 - 1 -SN SCT018 BKN026 OVC035 1-hr Precip Total: Trace
2018-12-18 08:04 22 16 10 77 360° 12 - 30.15 - 2 -SN BKN029 OVC037 1-hr Precip Total: Trace
2018-12-18 07:54 22 15 11 74 330° 10 - 30.15 30.15 9 -SN OVC035 1-hr Precip Total: Trace
2018-12-18 07:33 22 16 13 77 310° 8 - 30.13 - 9 -SN SCT021 OVC033 1-hr Precip Total: Trace
2018-12-18 06:54 22 18 11 84 320° 10 - 30.12 30.13 3 -SN BR BKN021 OVC034 1-hr Precip Total: 0.01"
6-hr Precip Total (7am): 0.01"
24-hr Precip Total (7am): 0.10"
Snow depth: 1"
6-hr Min Temp (7am): 21.9°F
6-hr Max Temp (7am): 24.1°F
2018-12-18 06:50 21 18 11 85 320° 9 - 30.13 - 3 -SN BR BKN022 OVC037 1-hr Precip Total: 0.01"
2018-12-18 06:46 22 18 10 84 320° 12 - 30.13 - 1 -SN BR BKN022 OVC037 1-hr Precip Total: 0.01"
2018-12-18 06:40 21 18 9 85 310° 12 - 30.12 - 2 -SN BR FEW021 BKN025 OVC037 None
2018-12-18 06:19 22 18 12 84 320° 9 - 30.11 - 5 -SN BR SCT021 BKN028 OVC037 1-hr Precip Total: 0.01"
2018-12-18 05:54 22 18 10 84 320° 12 - 30.10 30.10 2 -SN BR FEW010 BKN027 OVC037 1-hr Precip Total: Trace
2018-12-18 05:48 21 18 9 85 340° 12 - 30.09 - 2 -SN BR BKN029 OVC038 1-hr Precip Total: Trace
2018-12-18 05:34 22 18 10 84 330° 13 - 30.08 - 4 -SN BR SCT023 BKN029 OVC036 1-hr Precip Total: Trace
2018-12-18 05:28 22 18 6 84 330° 14 22 30.08 - 2 -SN BR FEW012 BKN023 OVC030 1-hr Precip Total: Trace
2018-12-18 04:54 23 18 12 80 310° 10 - 30.06 30.06 4 -SN FEW014 BKN026 OVC033 1-hr Precip Total: Trace
2018-12-18 03:54 24 17 13 74 320° 12 - 30.04 30.04 9 -SN BKN029 OVC034 1-hr Precip Total: Trace
6-hr Precip Total (4am): 0.00"
2018-12-18 02:54 24 16 13 70 320° 12 - 30.02 30.03 9 -SN OVC031 1-hr Precip Total: Trace
2018-12-18 01:54 24 15 7 68 340° 18 28 30.00 30.00 9 -SN OVC033 1-hr Precip Total: Trace
2018-12-18 00:54 24 15 13 68 330° 12 - 29.98 29.98 10 SCT033 BKN041 6-hr Precip Total (1am): 0.00"
6-hr Min Temp (1am): 24.1°F
6-hr Max Temp (1am): 35.1°F

Support USWX by starting your Amazon purchase here.